Data for 12/31/2017

Time Sea-Level Adjusted Pressure Absolute Pressure Temperature Relative Humidity Dew Point   
(mb) (inHg) (mb) (inHg) (C) (F) (%) (C) (F)
00:05 1023 30.21 852 25.16 -17.8 0 79 -20.5 -4.9
00:10 1023 30.21 852 25.16 -18 -0.4 79 -20.7 -5.3
00:15 1023 30.21 852 25.16 -18 -0.4 80 -20.6 -5.1
00:20 1023 30.21 852 25.16 -17.8 -0 79 -20.5 -5
00:25 1023 30.21 852 25.16 -17.7 0.1 79 -20.6 -5
00:30 1023 30.21 852 25.16 -17.9 -0.2 81 -20.4 -4.8
00:35 1023 30.21 852 25.16 -17.6 0.3 80 -20.3 -4.6
00:40 1023 30.21 852 25.16 -17.5 0.6 78 -20.4 -4.8
00:45 1023 30.21 852 25.16 -17.8 -0.1 79 -20.6 -5.1
00:50 1023 30.21 852 25.16 -17.7 0.1 79 -20.5 -5
00:55 1023 30.21 853 25.19 -17.5 0.5 75 -20.9 -5.6
01:00 1023 30.21 853 25.19 -17.9 -0.2 77 -20.9 -5.7
01:05 1023 30.21 853 25.19 -17.8 -0.1 76 -21 -5.8
01:10 1023 30.21 853 25.19 -18.1 -0.5 78 -21 -5.8
01:15 1023 30.21 853 25.19 -17.9 -0.2 78 -20.9 -5.7
01:20 1024 30.24 853 25.19 -17.8 -0 77 -20.9 -5.7
01:25 1024 30.24 853 25.19 -17.9 -0.2 76 -21.2 -6.1
01:30 1024 30.24 853 25.19 -18.2 -0.8 77 -21.3 -6.3
01:35 1024 30.24 853 25.19 -18.2 -0.7 78 -21.1 -5.9
01:40 1024 30.24 853 25.19 -18.1 -0.5 78 -21.1 -5.9
01:45 1024 30.24 853 25.19 -18.1 -0.5 77 -21.2 -6.2
01:50 1024 30.24 853 25.19 -18.2 -0.8 78 -21.1 -6
01:55 1024 30.24 853 25.19 -18.2 -0.8 78 -21.1 -6
02:00 1024 30.24 853 25.19 -18.2 -0.7 78 -21.1 -6
02:05 1024 30.24 853 25.19 -18.2 -0.7 78 -21.1 -5.9
02:10 1024 30.24 853 25.19 -18.2 -0.7 79 -21 -5.8
02:15 1024 30.24 853 25.19 -18.2 -0.7 79 -21 -5.8
02:20 1024 30.24 853 25.19 -18.1 -0.5 80 -20.8 -5.4
02:25 1023 30.21 853 25.19 -17.8 -0.1 78 -20.8 -5.5
02:30 1024 30.24 853 25.19 -18.1 -0.6 78 -21 -5.8
02:35 1024 30.24 853 25.19 -18.2 -0.7 80 -20.9 -5.6
02:40 1024 30.24 853 25.19 -17.9 -0.2 78 -20.9 -5.5
02:45 1024 30.24 853 25.19 -17.8 -0 76 -21 -5.8
02:50 1024 30.24 853 25.19 -17.8 -0.1 77 -20.9 -5.6
02:55 1024 30.24 853 25.19 -18.1 -0.6 78 -21.1 -6.1
03:00 1024 30.24 853 25.19 -18.4 -1.1 79 -21.2 -6.2
03:05 1024 30.24 853 25.19 -18.4 -1.1 78 -21.3 -6.3
03:10 1024 30.24 853 25.19 -18.5 -1.3 80 -21.1 -6.1
03:15 1024 30.24 853 25.19 -18.3 -1 78 -21.2 -6.2
03:20 1024 30.24 853 25.19 -18.6 -1.5 79 -21.3 -6.4
03:25 1024 30.24 853 25.19 -18.5 -1.3 80 -21.2 -6.1
03:30 1024 30.24 853 25.19 -18.4 -1.1 80 -21.1 -6
03:35 1024 30.24 853 25.19 -18.3 -0.9 80 -20.9 -5.7
03:40 1024 30.24 853 25.19 -18.1 -0.5 79 -20.9 -5.7
03:45 1024 30.24 853 25.19 -18 -0.3 78 -20.9 -5.7
03:50 1024 30.24 853 25.19 -17.8 -0.1 77 -20.9 -5.7
03:55 1024 30.24 853 25.19 -18 -0.3 76 -21.3 -6.3
04:00 1024 30.24 853 25.19 -18.6 -1.5 78 -21.5 -6.8
04:05 1024 30.24 853 25.19 -18.9 -2 79 -21.7 -7
04:10 1024 30.24 853 25.19 -18.9 -2.1 80 -21.6 -6.9
04:15 1024 30.24 853 25.19 -18.9 -2 80 -21.5 -6.8
04:20 1024 30.24 853 25.19 -18.8 -1.8 79 -21.5 -6.7
04:25 1024 30.24 853 25.19 -18.8 -1.8 80 -21.4 -6.5
04:30 1024 30.24 853 25.19 -18.7 -1.7 79 -21.5 -6.6
04:35 1024 30.24 853 25.19 -18.8 -1.9 80 -21.4 -6.6
04:40 1024 30.24 853 25.19 -18.7 -1.6 81 -21.2 -6.2
04:45 1024 30.24 853 25.19 -18.3 -0.9 79 -21.1 -6.1
04:50 1024 30.24 853 25.19 -18.3 -0.9 79 -21.2 -6.1
04:55 1024 30.24 853 25.19 -18.4 -1.1 79 -21.1 -6
05:00 1024 30.24 853 25.19 -18.1 -0.7 78 -21.1 -6
05:05 1024 30.24 853 25.19 -18.2 -0.7 77 -21.2 -6.2
05:10 1024 30.24 853 25.19 -18.4 -1.1 78 -21.3 -6.4
05:15 1024 30.24 853 25.19 -18.8 -1.8 80 -21.4 -6.6
05:20 1024 30.24 853 25.19 -18.8 -1.8 80 -21.4 -6.6
05:25 1024 30.24 853 25.19 -18.7 -1.7 81 -21.2 -6.1
05:30 1024 30.24 853 25.19 -18.5 -1.2 80 -21.2 -6.1
05:35 1024 30.24 854 25.22 -18.7 -1.7 81 -21.2 -6.1
05:40 1024 30.24 854 25.22 -18.5 -1.4 81 -21 -5.8
05:45 1024 30.24 854 25.22 -18.4 -1.2 81 -20.9 -5.6
05:50 1024 30.24 854 25.22 -18.5 -1.2 80 -21.1 -5.9
05:55 1024 30.24 854 25.22 -18.5 -1.2 80 -21.1 -6
06:00 1024 30.24 854 25.22 -18.7 -1.6 81 -21.2 -6.1
06:05 1024 30.24 854 25.22 -18.6 -1.4 81 -21.1 -6
06:10 1024 30.24 854 25.22 -18.5 -1.4 80 -21.2 -6.1
06:15 1024 30.24 854 25.22 -18.7 -1.7 81 -21.2 -6.2
06:20 1024 30.24 854 25.22 -18.8 -1.8 81 -21.3 -6.3
06:25 1024 30.24 854 25.22 -18.7 -1.7 82 -21.1 -5.9
06:30 1024 30.24 854 25.22 -18.5 -1.4 81 -21 -5.8
06:35 1024 30.24 854 25.22 -18.6 -1.4 81 -21 -5.8
06:40 1024 30.24 854 25.22 -18.6 -1.4 81 -21.1 -6
06:45 1024 30.24 854 25.22 -18.6 -1.4 81 -21.1 -6
06:50 1025 30.27 854 25.22 -18.6 -1.4 81 -21.1 -5.9
06:55 1025 30.27 854 25.22 -18.6 -1.4 82 -21 -5.7
07:00 1025 30.27 854 25.22 -18.5 -1.3 81 -21 -5.9
07:05 1025 30.27 854 25.22 -18.6 -1.4 81 -21.1 -6
07:10 1025 30.27 854 25.22 -18.5 -1.3 81 -21 -5.8
07:15 1025 30.27 854 25.22 -18.4 -1.2 81 -21 -5.8
07:20 1025 30.27 854 25.22 -18.5 -1.3 80 -21.1 -6
07:25 1025 30.27 854 25.22 -18.7 -1.7 81 -21.3 -6.3
07:30 1025 30.27 854 25.22 -18.7 -1.6 80 -21.3 -6.3
07:35 1025 30.27 854 25.22 -18.8 -1.8 81 -21.3 -6.3
07:40 1025 30.27 854 25.22 -18.9 -1.9 81 -21.3 -6.4
07:45 1025 30.27 854 25.22 -18.5 -1.4 79 -21.3 -6.3
07:50 1025 30.27 854 25.22 -18.5 -1.3 79 -21.3 -6.4
07:55 1025 30.27 854 25.22 -18.3 -0.9 78 -21.3 -6.3
08:00 1025 30.27 854 25.22 -18.2 -0.8 78 -21.3 -6.3
08:05 1025 30.27 854 25.22 -18 -0.5 77 -21.2 -6.2
08:10 1025 30.27 854 25.22 -17.5 0.5 75 -21 -5.7
08:15 1025 30.27 854 25.22 -17.2 1.1 72 -21.1 -5.9
08:20 1025 30.27 854 25.22 -17.3 1 73 -21 -5.8
08:25 1025 30.27 854 25.22 -17.3 0.8 71 -21.4 -6.5
08:30 1025 30.27 854 25.22 -17.3 0.8 71 -21.4 -6.5
08:35 1025 30.27 854 25.22 -17.3 1 72 -21.2 -6.2
08:40 1025 30.27 855 25.25 -16.6 2.1 70 -20.9 -5.5
08:45 1025 30.27 855 25.25 -16.2 2.8 69 -20.7 -5.3
08:50 1025 30.27 855 25.25 -16.2 2.9 68 -20.7 -5.3
08:55 1025 30.27 855 25.25 -16.4 2.5 68 -21.1 -6
09:00 1025 30.27 855 25.25 -16.3 2.7 67 -21 -5.9
09:05 1025 30.27 855 25.25 -15.9 3.4 66 -20.9 -5.7
09:10 1025 30.27 854 25.22 -15.9 3.4 66 -20.8 -5.5
09:15 1025 30.27 854 25.22 -16.1 3.1 67 -20.9 -5.5
09:20 1025 30.27 854 25.22 -15.3 4.5 63 -20.8 -5.5
09:25 1025 30.27 854 25.22 -15.3 4.5 63 -20.8 -5.4
09:30 1025 30.27 854 25.22 -15.2 4.7 64 -20.6 -5.1
09:35 1025 30.27 854 25.22 -14.9 5.2 61 -20.8 -5.4
09:40 1025 30.27 855 25.25 -14.6 5.7 61 -20.5 -4.9
09:45 1025 30.27 854 25.22 -14.5 5.9 61 -20.5 -4.8
09:50 1025 30.27 855 25.25 -14.7 5.6 62 -20.4 -4.7
09:55 1025 30.27 855 25.25 -15 5.1 63 -20.4 -4.8
10:00 1025 30.27 854 25.22 -15 5.1 63 -20.5 -4.9
10:05 1025 30.27 854 25.22 -14.4 6.1 61 -20.3 -4.6
10:10 1025 30.27 854 25.22 -14.2 6.5 61 -20.2 -4.4
10:15 1025 30.27 854 25.22 -13.9 7 60 -20.1 -4.3
10:20 1025 30.27 854 25.22 -13.4 7.8 59 -19.9 -3.9
10:25 1025 30.27 854 25.22 -14 6.8 61 -19.9 -3.9
10:30 1025 30.27 854 25.22 -13.8 7.1 61 -19.9 -3.8
10:35 1025 30.27 854 25.22 -13.2 8.2 60 -19.5 -3.1
10:40 1025 30.27 854 25.22 -12.6 9.4 56 -19.5 -3.2
10:45 1025 30.27 854 25.22 -12.5 9.5 55 -19.7 -3.5
10:50 1025 30.27 854 25.22 -12.8 9 55 -20 -4
10:55 1025 30.27 854 25.22 -13 8.7 58 -19.5 -3.2
11:00 1025 30.27 854 25.22 -13.3 8.1 58 -20 -4
11:05 1025 30.27 854 25.22 -13.3 8.1 58 -20 -3.9
11:10 1024 30.24 854 25.22 -13 8.6 57 -19.9 -3.8
11:15 1024 30.24 854 25.22 -13.2 8.3 59 -19.6 -3.3
11:20 1024 30.24 854 25.22 -13.2 8.2 57 -20.1 -4.3
11:25 1024 30.24 854 25.22 -12.2 10 53 -19.9 -3.9
11:30 1024 30.24 854 25.22 -11.6 11.1 51 -19.8 -3.6
11:35 1024 30.24 853 25.19 -11.6 11.1 50 -20 -3.9
11:40 1024 30.24 853 25.19 -11.6 11.1 51 -19.9 -3.8
11:45 1024 30.24 853 25.19 -11.8 10.8 51 -20 -3.9
11:50 1024 30.24 853 25.19 -12.9 8.9 56 -19.9 -3.8
11:55 1024 30.24 853 25.19 -13 8.6 57 -19.9 -3.8
12:00 1024 30.24 853 25.19 -12.6 9.4 55 -20 -3.9
12:05 1024 30.24 853 25.19 -12.8 8.9 55 -20 -4
12:10 1024 30.24 853 25.19 -12.5 9.5 56 -19.6 -3.3
12:15 1024 30.24 853 25.19 -12 10.3 52 -20.1 -4.2
12:20 1024 30.24 853 25.19 -12.4 9.6 55 -19.7 -3.4
12:25 1024 30.24 853 25.19 -12.2 10.1 53 -20 -4
12:30 1024 30.24 853 25.19 -12.1 10.2 55 -19.5 -3.1
12:35 1024 30.24 853 25.19 -11.8 10.8 52 -19.7 -3.5
12:40 1024 30.24 853 25.19 -12 10.5 55 -19.2 -2.6
12:45 1024 30.24 853 25.19 -12 10.5 54 -19.6 -3.2
12:50 1024 30.24 853 25.19 -11.9 10.7 52 -19.8 -3.6
12:55 1024 30.24 853 25.19 -12 10.3 56 -19.2 -2.6
13:00 1024 30.24 853 25.19 -11.8 10.8 53 -19.6 -3.3
13:05 1024 30.24 853 25.19 -11 12.2 50 -19.5 -3
13:10 1024 30.24 853 25.19 -11.4 11.4 53 -19.3 -2.7
13:15 1024 30.24 853 25.19 -11.4 11.5 52 -19.4 -2.9
13:20 1024 30.24 853 25.19 -11 12.3 51 -19.1 -2.5
13:25 1024 30.24 853 25.19 -10.9 12.5 51 -19.1 -2.5
13:30 1024 30.24 853 25.19 -10.5 13.1 52 -18.7 -1.6
13:35 1024 30.24 853 25.19 -10.2 13.6 49 -19.1 -2.4
13:40 1024 30.24 853 25.19 -10 14 49 -18.8 -1.8
13:45 1024 30.24 853 25.19 -9.7 14.6 49 -18.5 -1.3
13:50 1024 30.24 853 25.19 -9.7 14.5 49 -18.6 -1.4
13:55 1024 30.24 853 25.19 -9.4 15.1 48 -18.5 -1.3
14:00 1024 30.24 853 25.19 -9.5 14.9 49 -18.3 -1
14:05 1024 30.24 853 25.19 -10 14 51 -18.2 -0.8
14:10 1024 30.24 853 25.19 -10.5 13 54 -18.1 -0.6
14:15 1024 30.24 853 25.19 -9.9 14.2 49 -18.6 -1.5
14:20 1024 30.24 853 25.19 -10 14 53 -17.9 -0.1
14:25 1024 30.24 853 25.19 -10.2 13.6 53 -18 -0.4
14:30 1024 30.24 853 25.19 -10.6 12.9 55 -18 -0.4
14:35 1024 30.24 853 25.19 -10.1 13.8 51 -18.4 -1.1
14:40 1024 30.24 853 25.19 -10.4 13.2 52 -18.5 -1.3
14:45 1024 30.24 853 25.19 -10.4 13.3 52 -18.4 -1.2
14:50 1024 30.24 853 25.19 -10.2 13.6 51 -18.6 -1.5
14:55 1024 30.24 853 25.19 -10.5 13.2 51 -18.7 -1.6
15:00 1024 30.24 853 25.19 -11.1 12 53 -18.8 -1.9
15:05 1024 30.24 853 25.19 -11.4 11.6 53 -19.3 -2.7
15:10 1024 30.24 853 25.19 -11.7 11 55 -19.1 -2.3
15:15 1024 30.24 853 25.19 -12.7 9.2 59 -19.1 -2.4
15:20 1024 30.24 853 25.19 -13.1 8.5 61 -19.2 -2.5
15:25 1024 30.24 853 25.19 -12.9 8.8 60 -19 -2.2
15:30 1024 30.24 853 25.19 -13.1 8.5 62 -19 -2.1
15:35 1024 30.24 853 25.19 -13.4 7.9 63 -19 -2.2
15:40 1024 30.24 853 25.19 -13.3 8 63 -19 -2.1
15:45 1024 30.24 853 25.19 -13.5 7.7 64 -18.9 -2.1
15:50 1024 30.24 853 25.19 -13.5 7.7 64 -18.9 -2
15:55 1024 30.24 853 25.19 -13.8 7.3 66 -18.9 -2
16:00 1024 30.24 853 25.19 -13.9 7 66 -19 -2.1
16:05 1024 30.24 853 25.19 -13.8 7.3 68 -18.5 -1.4
16:10 1024 30.24 853 25.19 -13.3 8 65 -18.6 -1.4
16:15 1024 30.24 853 25.19 -13.3 8.1 65 -18.5 -1.2
16:20 1024 30.24 853 25.19 -13.3 8.1 68 -18 -0.4
16:25 1024 30.24 853 25.19 -13.1 8.4 71 -17.4 0.7
16:30 1024 30.24 853 25.19 -13.3 8 67 -18.2 -0.8
16:35 1024 30.24 853 25.19 -14.3 6.3 70 -18.6 -1.5
16:40 1024 30.24 853 25.19 -14.8 5.3 72 -18.9 -2
16:45 1024 30.24 853 25.19 -15.1 4.9 73 -18.9 -2
16:50 1024 30.24 853 25.19 -14.8 5.3 72 -18.8 -1.8
16:55 1024 30.24 853 25.19 -14.2 6.5 69 -18.7 -1.7
17:00 1024 30.24 853 25.19 -14.2 6.4 69 -18.8 -1.8
17:05 1024 30.24 854 25.22 -14.8 5.5 72 -18.8 -1.8
17:10 1024 30.24 854 25.22 -14.8 5.4 73 -18.6 -1.6
17:15 1024 30.24 853 25.19 -14.7 5.6 71 -18.9 -2
17:20 1024 30.24 854 25.22 -15.1 4.7 74 -18.7 -1.7
17:25 1024 30.24 854 25.22 -15.3 4.5 73 -19.1 -2.4
17:30 1024 30.24 854 25.22 -14.8 5.4 75 -18.3 -0.9
17:35 1024 30.24 854 25.22 -13.8 7.1 71 -18 -0.4
17:40 1024 30.24 854 25.22 -13.4 7.8 73 -17.4 0.8
17:45 1024 30.24 854 25.22 -13.1 8.5 74 -16.8 1.8
17:50 1024 30.24 854 25.22 -13 8.6 75 -16.6 2.1
17:55 1024 30.24 854 25.22 -12.9 8.9 76 -16.3 2.7
18:00 1025 30.27 854 25.22 -13 8.7 76 -16.4 2.6
18:05 1025 30.27 854 25.22 -13.4 7.9 76 -16.8 1.8
18:10 1025 30.27 854 25.22 -13.8 7.2 72 -17.8 0
18:15 1025 30.27 854 25.22 -14.2 6.5 73 -18 -0.5
18:20 1024 30.24 854 25.22 -14.8 5.4 72 -18.7 -1.6
18:25 1024 30.24 854 25.22 -15.1 4.7 74 -18.7 -1.7
18:30 1024 30.24 854 25.22 -15.1 4.8 73 -19 -2.2
18:35 1024 30.24 854 25.22 -15.3 4.5 74 -18.9 -2.1
18:40 1024 30.24 854 25.22 -15.5 4.2 75 -19 -2.2
18:45 1024 30.24 853 25.19 -15.8 3.5 79 -18.7 -1.6
18:50 1024 30.24 853 25.19 -15.9 3.4 79 -18.8 -1.8
18:55 1024 30.24 853 25.19 -15.7 3.8 83 -17.9 -0.2
19:00 1024 30.24 853 25.19 -14.8 5.3 85 -16.9 1.6
19:05 1024 30.24 853 25.19 -14.1 6.7 83 -16.3 2.6
19:10 1024 30.24 853 25.19 -13.7 7.4 84 -15.8 3.6
19:15 1024 30.24 853 25.19 -13.2 8.3 84 -15.4 4.2
19:20 1024 30.24 853 25.19 -12.8 9 82 -15.2 4.6
19:25 1024 30.24 853 25.19 -12.9 8.8 82 -15.4 4.3
19:30 1024 30.24 853 25.19 -13.1 8.3 81 -15.7 3.7
19:35 1024 30.24 853 25.19 -13.3 8.1 83 -15.7 3.8
19:40 1024 30.24 853 25.19 -13.3 8.1 83 -15.5 4
19:45 1024 30.24 853 25.19 -12.8 9 82 -15.2 4.6
19:50 1024 30.24 853 25.19 -12.3 9.9 80 -15 5
19:55 1024 30.24 853 25.19 -12 10.4 78 -15 5
20:00 1024 30.24 853 25.19 -11.7 10.9 79 -14.7 5.5
20:05 1024 30.24 853 25.19 -11.3 11.7 77 -14.5 5.9
20:10 1024 30.24 853 25.19 -11.1 12 77 -14.4 6
20:15 1024 30.24 853 25.19 -11.1 12 76 -14.5 5.9
20:20 1024 30.24 853 25.19 -11.1 12.1 77 -14.3 6.2
20:25 1024 30.24 853 25.19 -10.4 13.2 73 -14.3 6.2
20:30 1023 30.21 853 25.19 -10.4 13.3 73 -14.3 6.3
20:35 1023 30.21 853 25.19 -10.3 13.4 72 -14.4 6.1
20:40 1023 30.21 853 25.19 -10.8 12.6 75 -14.5 5.9
20:45 1023 30.21 853 25.19 -11.3 11.7 70 -15.7 3.7
20:50 1023 30.21 853 25.19 -12.4 9.7 77 -15.6 3.9
20:55 1023 30.21 853 25.19 -12.5 9.5 77 -15.8 3.6
21:00 1023 30.21 852 25.16 -12.3 9.9 79 -15.2 4.6
21:05 1023 30.21 852 25.16 -10.7 12.8 72 -14.8 5.3
21:10 1023 30.21 852 25.16 -9.6 14.7 70 -14.1 6.7
21:15 1023 30.21 852 25.16 -9.3 15.3 67 -14.3 6.2
21:20 1023 30.21 852 25.16 -9.5 14.9 68 -14.3 6.2
21:25 1023 30.21 852 25.16 -9.8 14.3 69 -14.4 6.1
21:30 1023 30.21 853 25.19 -10.4 13.3 70 -14.9 5.3
21:35 1023 30.21 853 25.19 -10.9 12.4 68 -15.7 3.8
21:40 1023 30.21 853 25.19 -11.6 11.2 69 -16.1 2.9
21:45 1023 30.21 853 25.19 -12.2 10.1 70 -16.6 2.1
21:50 1023 30.21 853 25.19 -13.1 8.4 73 -17 1.5
21:55 1023 30.21 853 25.19 -13.7 7.3 76 -17.1 1.2
22:00 1023 30.21 853 25.19 -14 6.9 79 -16.8 1.8
22:05 1023 30.21 853 25.19 -13.9 7 80 -16.6 2.1
22:10 1023 30.21 853 25.19 -13.5 7.7 80 -16.3 2.6
22:15 1023 30.21 853 25.19 -13.2 8.3 79 -16.1 3
22:20 1023 30.21 853 25.19 -13 8.6 80 -15.8 3.5
22:25 1023 30.21 853 25.19 -12.4 9.7 75 -16 3.2
22:30 1023 30.21 853 25.19 -12.1 10.2 76 -15.5 4.1
22:35 1023 30.21 853 25.19 -11.4 11.6 72 -15.5 4.1
22:40 1023 30.21 853 25.19 -11.1 12 72 -15.1 4.7
22:45 1023 30.21 852 25.16 -10.9 12.3 72 -15.1 4.8
22:50 1023 30.21 852 25.16 -10.9 12.4 72 -15 5
22:55 1023 30.21 852 25.16 -10.8 12.6 72 -14.9 5.2
23:00 1023 30.21 852 25.16 -10.8 12.6 72 -15 5.1
23:05 1023 30.21 853 25.19 -10.8 12.5 71 -15.2 4.7
23:10 1023 30.21 853 25.19 -11.4 11.5 69 -16 3.2
23:15 1023 30.21 853 25.19 -12 10.4 71 -16.3 2.6
23:20 1023 30.21 853 25.19 -12.5 9.5 72 -16.6 2.1
23:25 1023 30.21 853 25.19 -12.7 9.1 73 -16.7 1.9
23:30 1023 30.21 852 25.16 -12.9 8.8 74 -16.7 2
23:35 1023 30.21 852 25.16 -13 8.5 75 -16.6 2.1
23:40 1023 30.21 852 25.16 -13.1 8.4 75 -16.6 2.1
23:45 1023 30.21 853 25.19 -13.2 8.2 76 -16.6 2.1
23:50 1023 30.21 852 25.16 -13.2 8.2 76 -16.6 2.1
23:55 1023 30.21 852 25.16 -13.2 8.3 77 -16.5 2.3
24:00 1023 30.21 852 25.16 -13.1 8.4 77 -16.3 2.7